createdAt,value
2019-02-19T00:00:02.519Z,6.65
2019-02-19T00:01:04.531Z,6.65
2019-02-19T00:02:02.518Z,6.78
2019-02-19T00:03:03.540Z,6.74
2019-02-19T00:04:02.480Z,6.80
2019-02-19T00:05:02.509Z,6.78
2019-02-19T00:06:02.453Z,6.83
2019-02-19T00:07:02.546Z,6.82
2019-02-19T00:08:02.435Z,6.75
2019-02-19T00:09:02.531Z,6.75
2019-02-19T00:10:02.411Z,6.74
2019-02-19T00:11:02.445Z,6.72
2019-02-19T00:12:02.403Z,6.71
2019-02-19T00:13:02.460Z,6.75
2019-02-19T00:14:02.366Z,6.71
2019-02-19T00:15:07.964Z,6.85
2019-02-19T00:16:03.341Z,6.68
2019-02-19T00:17:02.413Z,6.72
2019-02-19T00:18:02.323Z,6.82
2019-02-19T00:19:02.394Z,6.85
2019-02-19T00:20:02.301Z,6.70
2019-02-19T00:21:02.308Z,6.71
2019-02-19T00:22:02.308Z,6.65
2019-02-19T00:23:02.320Z,6.64
2019-02-19T00:24:02.257Z,6.65
2019-02-19T00:25:02.334Z,6.71
2019-02-19T00:26:02.234Z,6.70
2019-02-19T00:27:02.278Z,6.70
2019-02-19T00:28:02.214Z,6.72
2019-02-19T00:29:02.267Z,6.71
2019-02-19T00:30:02.222Z,6.77
2019-02-19T00:31:02.274Z,6.71
2019-02-19T00:32:02.198Z,6.74
2019-02-19T00:33:02.185Z,6.71
2019-02-19T00:34:02.150Z,6.72
2019-02-19T00:35:02.230Z,6.72
2019-02-19T00:36:02.138Z,6.64
2019-02-19T00:37:02.239Z,6.70
2019-02-19T00:38:02.105Z,6.60
2019-02-19T00:39:02.124Z,6.67
2019-02-19T00:40:02.085Z,6.62
2019-02-19T00:41:04.184Z,6.67
2019-02-19T00:42:02.083Z,6.60
2019-02-19T00:43:03.082Z,6.64
2019-02-19T00:44:02.040Z,6.56
2019-02-19T00:45:02.062Z,6.64
2019-02-19T00:46:02.018Z,6.59
2019-02-19T00:47:02.101Z,6.65
2019-02-19T00:48:01.998Z,6.53
2019-02-19T00:49:02.090Z,6.57
2019-02-19T00:50:01.975Z,6.57
2019-02-19T00:51:02.002Z,6.52
2019-02-19T00:52:01.980Z,6.52
2019-02-19T00:53:02.022Z,6.52
2019-02-19T00:54:01.934Z,6.44
2019-02-19T00:55:02.031Z,6.53
2019-02-19T00:56:01.908Z,6.52
2019-02-19T00:57:01.953Z,6.44
2019-02-19T00:58:01.904Z,6.47
2019-02-19T00:59:01.952Z,6.46
2019-02-19T01:00:01.876Z,6.44
2019-02-19T01:01:01.972Z,6.44
2019-02-19T01:02:01.847Z,6.49
2019-02-19T01:03:01.905Z,6.47
2019-02-19T01:04:01.821Z,6.46
2019-02-19T01:05:01.914Z,6.43
2019-02-19T01:06:01.804Z,6.39
2019-02-19T01:07:01.804Z,6.38
2019-02-19T01:08:01.794Z,6.38
2019-02-19T01:09:01.826Z,6.26
2019-02-19T01:10:01.765Z,6.29
2019-02-19T01:11:01.831Z,6.17
2019-02-19T01:12:01.748Z,6.17
2019-02-19T01:13:01.768Z,6.19
2019-02-19T01:14:01.716Z,6.15
2019-02-19T01:15:01.778Z,6.01
2019-02-19T01:16:01.717Z,6.02
2019-02-19T01:17:01.781Z,6.06
2019-02-19T01:18:01.687Z,6.06
2019-02-19T01:19:01.694Z,6.06
2019-02-19T01:20:01.647Z,6.06
2019-02-19T01:21:01.693Z,6.01
2019-02-19T01:22:01.626Z,5.97
2019-02-19T01:23:01.748Z,5.81
2019-02-19T01:24:01.602Z,5.84
2019-02-19T01:25:01.620Z,5.88
2019-02-19T01:26:01.581Z,5.84
2019-02-19T01:27:02.660Z,5.92
2019-02-19T01:28:01.583Z,5.84
2019-02-19T01:29:02.584Z,5.83
2019-02-19T01:30:01.538Z,5.90
2019-02-19T01:31:01.573Z,5.76
2019-02-19T01:32:01.516Z,5.91
2019-02-19T01:33:01.600Z,5.80
2019-02-19T01:34:01.495Z,5.77
2019-02-19T01:35:02.513Z,5.72
2019-02-19T01:36:01.472Z,5.72
2019-02-19T01:37:01.512Z,5.72
2019-02-19T01:38:01.466Z,5.80
2019-02-19T01:39:01.515Z,5.67
2019-02-19T01:40:01.434Z,5.73
2019-02-19T01:41:01.531Z,5.74
2019-02-19T01:42:01.417Z,5.83
2019-02-19T01:43:01.464Z,5.73
2019-02-19T01:44:01.389Z,5.73
2019-02-19T01:45:01.457Z,5.80
2019-02-19T01:46:01.366Z,5.80
2019-02-19T01:47:01.469Z,5.90
2019-02-19T01:48:01.359Z,6.01
2019-02-19T01:49:01.384Z,5.91
2019-02-19T01:50:01.321Z,6.05
2019-02-19T01:51:01.392Z,6.13
2019-02-19T01:52:01.305Z,6.26
2019-02-19T01:53:01.327Z,6.26
2019-02-19T01:54:01.280Z,6.26
2019-02-19T01:55:01.319Z,6.39
2019-02-19T01:56:01.256Z,6.44
2019-02-19T01:57:01.334Z,6.54
2019-02-19T01:58:01.295Z,6.62
2019-02-19T01:59:01.241Z,6.62
2019-02-19T02:00:01.211Z,6.67
2019-02-19T02:01:01.258Z,6.72
2019-02-19T02:02:01.191Z,6.78
2019-02-19T02:03:01.292Z,6.82
2019-02-19T02:04:01.172Z,6.86
2019-02-19T02:05:01.187Z,6.86
2019-02-19T02:06:01.164Z,7.03
2019-02-19T02:07:01.193Z,7.07
2019-02-19T02:08:01.139Z,7.15
2019-02-19T02:09:01.212Z,7.19
2019-02-19T02:10:01.127Z,7.15
2019-02-19T02:11:01.122Z,7.10
2019-02-19T02:12:01.081Z,7.13
2019-02-19T02:13:03.131Z,7.08
2019-02-19T02:14:01.060Z,7.18
2019-02-19T02:15:02.068Z,7.21
2019-02-19T02:16:01.038Z,7.26
2019-02-19T02:17:01.056Z,7.21
2019-02-19T02:18:01.032Z,7.19
2019-02-19T02:19:01.071Z,7.22
2019-02-19T02:20:00.998Z,7.19
2019-02-19T02:21:02.011Z,7.28
2019-02-19T02:22:01.934Z,7.26
2019-02-19T02:23:01.020Z,7.18
2019-02-19T02:24:00.952Z,7.18
2019-02-19T02:25:01.011Z,7.07
2019-02-19T02:26:00.930Z,7.21
2019-02-19T02:27:01.027Z,7.29
2019-02-19T02:28:00.930Z,7.28
2019-02-19T02:29:00.940Z,7.21
2019-02-19T02:30:00.892Z,7.29
2019-02-19T02:31:00.958Z,7.25
2019-02-19T02:32:00.870Z,7.28
2019-02-19T02:33:00.887Z,7.32
2019-02-19T02:34:00.847Z,7.43
2019-02-19T02:35:00.881Z,7.53
2019-02-19T02:36:00.824Z,7.40
2019-02-19T02:37:00.887Z,7.41
2019-02-19T02:38:00.814Z,7.43
2019-02-19T02:39:00.899Z,7.47
2019-02-19T02:40:00.778Z,7.59
2019-02-19T02:41:00.832Z,7.59
2019-02-19T02:42:00.757Z,7.74
2019-02-19T02:43:00.825Z,7.85
2019-02-19T02:44:00.750Z,7.90
2019-02-19T02:45:00.737Z,7.88
2019-02-19T02:46:00.714Z,7.85
2019-02-19T02:47:00.752Z,7.88
2019-02-19T02:48:00.693Z,7.87
2019-02-19T02:49:00.793Z,7.90
2019-02-19T02:50:00.682Z,7.98
2019-02-19T02:51:00.675Z,8.01
2019-02-19T02:52:00.651Z,7.90
2019-02-19T02:53:00.690Z,7.96
2019-02-19T02:54:00.642Z,7.99
2019-02-19T02:55:00.702Z,7.99
2019-02-19T02:56:00.608Z,7.95
2019-02-19T02:57:00.619Z,7.98
2019-02-19T02:58:00.582Z,8.03
2019-02-19T02:59:02.705Z,8.03
2019-02-19T03:00:00.564Z,7.96
2019-02-19T03:01:02.588Z,8.01
2019-02-19T03:02:00.547Z,8.05
2019-02-19T03:03:00.552Z,8.02
2019-02-19T03:04:00.534Z,8.01
2019-02-19T03:05:00.568Z,7.91
2019-02-19T03:06:00.500Z,7.87
2019-02-19T03:07:01.509Z,7.99
2019-02-19T03:08:00.474Z,7.96
2019-02-19T03:09:00.521Z,7.98
2019-02-19T03:10:00.454Z,8.02
2019-02-19T03:11:00.507Z,7.98
2019-02-19T03:12:00.434Z,7.98
2019-02-19T03:13:00.524Z,7.87
2019-02-19T03:14:00.425Z,7.85
2019-02-19T03:15:00.435Z,7.95
2019-02-19T03:16:02.686Z,7.90
2019-02-19T03:17:00.442Z,7.88
2019-02-19T03:18:00.365Z,7.87
2019-02-19T03:19:00.483Z,7.88
2019-02-19T03:20:00.344Z,7.91
2019-02-19T03:21:00.373Z,7.87
2019-02-19T03:22:00.328Z,7.87
2019-02-19T03:23:00.393Z,7.87
2019-02-19T03:24:00.316Z,7.87
2019-02-19T03:25:00.397Z,7.91
2019-02-19T03:26:00.279Z,7.91
2019-02-19T03:27:00.313Z,7.85
2019-02-19T03:28:00.261Z,7.91
2019-02-19T03:29:00.345Z,7.90
2019-02-19T03:30:00.269Z,7.84
2019-02-19T03:31:00.343Z,7.85
2019-02-19T03:32:00.218Z,7.80
2019-02-19T03:33:00.291Z,7.75
2019-02-19T03:34:00.207Z,7.75
2019-02-19T03:35:00.477Z,7.75
2019-02-19T03:36:00.173Z,7.67
2019-02-19T03:37:00.273Z,7.70
2019-02-19T03:38:00.148Z,7.74
2019-02-19T03:39:00.213Z,7.69
2019-02-19T03:40:00.178Z,7.64
2019-02-19T03:41:00.198Z,7.61
2019-02-19T03:42:00.106Z,7.59
2019-02-19T03:43:00.109Z,7.58
2019-02-19T03:44:00.100Z,7.58
2019-02-19T03:45:07.036Z,7.48
2019-02-19T03:46:00.075Z,7.48
2019-02-19T03:47:07.035Z,7.51
2019-02-19T03:48:00.052Z,7.47
2019-02-19T03:49:00.078Z,7.40
2019-02-19T03:50:00.023Z,7.39
2019-02-19T03:51:00.063Z,7.39
2019-02-19T03:51:59.995Z,7.40
2019-02-19T03:53:02.029Z,7.37
2019-02-19T03:53:59.994Z,7.36
2019-02-19T03:54:59.986Z,7.37
2019-02-19T03:55:59.954Z,7.31
2019-02-19T03:56:59.999Z,7.28
2019-02-19T03:57:59.951Z,7.23
2019-02-19T03:59:00.448Z,7.21
2019-02-19T03:59:59.914Z,7.15
2019-02-19T04:00:59.937Z,7.14
2019-02-19T04:01:59.888Z,7.10
2019-02-19T04:02:59.939Z,7.13
2019-02-19T04:03:59.881Z,7.15
2019-02-19T04:04:59.864Z,7.13
2019-02-19T04:05:59.847Z,7.07
2019-02-19T04:06:59.868Z,7.10
2019-02-19T04:07:59.823Z,7.08
2019-02-19T04:08:59.904Z,7.04
2019-02-19T04:09:59.810Z,7.03
2019-02-19T04:10:59.897Z,6.96
2019-02-19T04:11:59.784Z,7.01
2019-02-19T04:12:59.806Z,6.97
2019-02-19T04:13:59.771Z,6.97
2019-02-19T04:14:59.820Z,6.92
2019-02-19T04:15:59.734Z,6.90
2019-02-19T04:16:59.842Z,6.93
2019-02-19T04:17:59.716Z,6.92
2019-02-19T04:18:59.770Z,6.92
2019-02-19T04:19:59.704Z,6.92
2019-02-19T04:20:59.755Z,6.89
2019-02-19T04:21:59.670Z,6.93
2019-02-19T04:22:59.768Z,6.92
2019-02-19T04:23:59.667Z,7.00
2019-02-19T04:24:59.685Z,6.90
2019-02-19T04:25:59.637Z,6.92
2019-02-19T04:26:59.693Z,6.90
2019-02-19T04:27:59.627Z,6.89
2019-02-19T04:28:59.609Z,6.86
2019-02-19T04:29:59.600Z,6.90
2019-02-19T04:31:00.686Z,6.92
2019-02-19T04:31:59.568Z,6.93
2019-02-19T04:33:00.681Z,6.96
2019-02-19T04:33:59.543Z,6.93
2019-02-19T04:34:59.579Z,6.89
2019-02-19T04:35:59.518Z,6.93
2019-02-19T04:36:59.564Z,6.90
2019-02-19T04:37:59.496Z,6.90
2019-02-19T04:38:59.575Z,6.85
2019-02-19T04:39:59.490Z,6.71
2019-02-19T04:40:59.492Z,6.78
2019-02-19T04:41:59.472Z,6.77
2019-02-19T04:42:59.505Z,6.82
2019-02-19T04:43:59.432Z,6.80
2019-02-19T04:44:59.543Z,6.71
2019-02-19T04:45:59.409Z,6.86
2019-02-19T04:46:59.426Z,6.75
2019-02-19T04:47:59.395Z,6.80
2019-02-19T04:48:59.440Z,6.78
2019-02-19T04:49:59.397Z,6.82
2019-02-19T04:50:59.454Z,6.78
2019-02-19T04:51:59.350Z,6.83
2019-02-19T04:52:59.364Z,6.71
2019-02-19T04:53:59.322Z,6.75
2019-02-19T04:54:59.403Z,6.77
2019-02-19T04:55:59.302Z,6.80
2019-02-19T04:56:59.393Z,6.77
2019-02-19T04:57:59.295Z,6.74
2019-02-19T04:58:59.310Z,6.83
2019-02-19T04:59:59.272Z,6.71
2019-02-19T05:00:59.317Z,6.80
2019-02-19T05:01:59.239Z,6.71
2019-02-19T05:02:59.333Z,6.71
2019-02-19T05:03:59.217Z,6.68
2019-02-19T05:04:59.273Z,6.59
2019-02-19T05:05:59.211Z,6.60
2019-02-19T05:06:59.260Z,6.65
2019-02-19T05:07:59.177Z,6.56
2019-02-19T05:08:59.269Z,6.47
2019-02-19T05:09:59.165Z,6.49
2019-02-19T05:10:59.190Z,6.47
2019-02-19T05:11:59.144Z,6.52
2019-02-19T05:12:59.193Z,6.47
2019-02-19T05:13:59.114Z,6.54
2019-02-19T05:14:59.135Z,6.44
2019-02-19T05:15:59.086Z,6.53
2019-02-19T05:17:07.043Z,6.47
2019-02-19T05:17:59.061Z,6.44
2019-02-19T05:19:00.156Z,6.50
2019-02-19T05:19:59.062Z,6.50
2019-02-19T05:20:59.150Z,6.53
2019-02-19T05:21:59.027Z,6.52
2019-02-19T05:22:59.075Z,6.44
2019-02-19T05:23:59.004Z,6.43
2019-02-19T05:24:59.103Z,6.49
2019-02-19T05:25:58.976Z,6.44
2019-02-19T05:26:58.987Z,6.47
2019-02-19T05:27:58.955Z,6.46
2019-02-19T05:28:59.004Z,6.39
2019-02-19T05:29:58.944Z,6.34
2019-02-19T05:30:59.012Z,6.44
2019-02-19T05:31:58.917Z,6.41
2019-02-19T05:32:58.925Z,6.49
2019-02-19T05:33:58.886Z,6.47
2019-02-19T05:34:58.974Z,6.34
2019-02-19T05:35:58.866Z,6.38
2019-02-19T05:36:58.986Z,6.35
2019-02-19T05:37:58.843Z,6.44
2019-02-19T05:38:58.878Z,6.38
2019-02-19T05:39:58.837Z,6.47
2019-02-19T05:40:58.909Z,6.47
2019-02-19T05:41:58.798Z,6.53
2019-02-19T05:42:58.886Z,6.65
2019-02-19T05:43:58.788Z,6.60
2019-02-19T05:44:58.831Z,6.68
2019-02-19T05:45:58.758Z,6.72
2019-02-19T05:46:58.812Z,6.68
2019-02-19T05:47:58.734Z,6.71
2019-02-19T05:48:58.826Z,6.70
2019-02-19T05:49:58.742Z,6.70
2019-02-19T05:50:58.747Z,6.71
2019-02-19T05:51:58.693Z,6.71
2019-02-19T05:52:58.751Z,6.83
2019-02-19T05:53:58.682Z,6.68
2019-02-19T05:54:58.686Z,6.82
2019-02-19T05:55:58.655Z,6.90
2019-02-19T05:56:58.678Z,6.93
2019-02-19T05:57:58.628Z,6.90
2019-02-19T05:58:58.687Z,7.03
2019-02-19T05:59:58.631Z,7.00
2019-02-19T06:00:58.733Z,7.00
2019-02-19T06:01:58.586Z,7.05
2019-02-19T06:02:58.613Z,6.89
2019-02-19T06:03:58.560Z,6.96
2019-02-19T06:04:58.653Z,7.03
2019-02-19T06:05:58.547Z,7.05
2019-02-19T06:06:58.671Z,7.07
2019-02-19T06:07:58.524Z,7.11
2019-02-19T06:08:58.551Z,7.11
2019-02-19T06:09:58.567Z,7.11
2019-02-19T06:10:58.566Z,7.15
2019-02-19T06:11:58.476Z,7.19
2019-02-19T06:12:58.480Z,7.14
2019-02-19T06:13:58.453Z,7.26
2019-02-19T06:14:58.514Z,7.14
2019-02-19T06:15:58.433Z,7.26
2019-02-19T06:16:58.979Z,7.25
2019-02-19T06:17:58.410Z,7.22
2019-02-19T06:18:58.427Z,7.31
2019-02-19T06:19:58.411Z,7.33
2019-02-19T06:20:58.476Z,7.22
2019-02-19T06:21:58.367Z,7.21
2019-02-19T06:22:58.443Z,7.25
2019-02-19T06:23:58.347Z,7.25
2019-02-19T06:24:58.614Z,7.15
2019-02-19T06:25:58.330Z,7.28
2019-02-19T06:26:58.370Z,7.18
2019-02-19T06:27:58.301Z,7.22
2019-02-19T06:28:58.382Z,7.25
2019-02-19T06:29:58.290Z,7.25
2019-02-19T06:30:58.322Z,7.29
2019-02-19T06:31:58.257Z,7.15
2019-02-19T06:32:58.306Z,7.22
2019-02-19T06:33:58.248Z,7.18
2019-02-19T06:34:58.321Z,7.19
2019-02-19T06:35:58.229Z,7.14
2019-02-19T06:36:58.235Z,7.13
2019-02-19T06:37:58.192Z,7.22
2019-02-19T06:38:58.245Z,7.13
2019-02-19T06:39:58.170Z,7.14
2019-02-19T06:40:58.306Z,7.13
2019-02-19T06:41:58.150Z,7.11
2019-02-19T06:42:58.175Z,7.14
2019-02-19T06:43:58.128Z,7.11
2019-02-19T06:44:58.187Z,7.08
2019-02-19T06:45:58.122Z,7.11
2019-02-19T06:47:06.531Z,7.13
2019-02-19T06:47:59.084Z,7.14
2019-02-19T06:49:07.038Z,7.19
2019-02-19T06:49:58.063Z,7.18
2019-02-19T06:51:03.586Z,7.13
2019-02-19T06:51:58.041Z,7.15
2019-02-19T06:52:59.084Z,7.11
2019-02-19T06:53:58.037Z,7.22
2019-02-19T06:54:58.049Z,7.15
2019-02-19T06:55:58.013Z,7.18
2019-02-19T06:56:58.062Z,7.18
2019-02-19T06:57:57.986Z,7.14
2019-02-19T06:58:58.997Z,7.15
2019-02-19T06:59:57.960Z,7.11
2019-02-19T07:00:58.012Z,7.13
2019-02-19T07:01:57.932Z,7.19
2019-02-19T07:02:58.003Z,7.18
2019-02-19T07:03:57.915Z,7.14
2019-02-19T07:04:58.013Z,7.14
2019-02-19T07:05:57.906Z,7.18
2019-02-19T07:06:57.930Z,7.25
2019-02-19T07:07:57.878Z,7.19
2019-02-19T07:08:57.939Z,7.25
2019-02-19T07:09:57.845Z,7.26
2019-02-19T07:10:57.876Z,7.21
2019-02-19T07:11:58.904Z,7.25
2019-02-19T07:12:57.865Z,7.29
2019-02-19T07:13:57.804Z,7.39
2019-02-19T07:14:57.883Z,7.40
2019-02-19T07:15:57.808Z,7.39
2019-02-19T07:16:57.807Z,7.36
2019-02-19T07:17:57.760Z,7.41
2019-02-19T07:18:57.805Z,7.41
2019-02-19T07:19:57.745Z,7.37
2019-02-19T07:20:57.848Z,7.51
2019-02-19T07:21:57.720Z,7.48
2019-02-19T07:22:57.730Z,7.47
2019-02-19T07:24:04.388Z,7.55
2019-02-19T07:24:58.766Z,7.47
2019-02-19T07:25:57.690Z,7.48
2019-02-19T07:26:57.763Z,7.50
2019-02-19T07:27:57.651Z,7.58
2019-02-19T07:28:57.670Z,7.44
2019-02-19T07:29:57.627Z,7.55
2019-02-19T07:30:57.719Z,7.61
2019-02-19T07:31:57.609Z,7.47
2019-02-19T07:32:57.700Z,7.53
2019-02-19T07:33:57.588Z,7.53
2019-02-19T07:35:12.563Z,7.55
2019-02-19T07:35:57.579Z,7.41
2019-02-19T07:37:13.671Z,7.50
2019-02-19T07:37:57.543Z,7.56
2019-02-19T07:38:58.559Z,7.61
2019-02-19T07:39:57.546Z,7.51
2019-02-19T07:40:57.572Z,7.48
2019-02-19T07:41:57.498Z,7.55
2019-02-19T07:42:57.562Z,7.56
2019-02-19T07:43:57.476Z,7.46
2019-02-19T07:44:58.501Z,7.51
2019-02-19T07:45:57.527Z,7.58
2019-02-19T07:46:57.495Z,7.56
2019-02-19T07:47:57.433Z,7.51
2019-02-19T07:48:57.500Z,7.58
2019-02-19T07:49:57.416Z,7.44
2019-02-19T07:50:57.411Z,7.51
2019-02-19T07:51:57.404Z,7.55
2019-02-19T07:52:57.430Z,7.48
2019-02-19T07:53:57.369Z,7.59
2019-02-19T07:54:57.439Z,7.48
2019-02-19T07:55:57.348Z,7.61
2019-02-19T07:56:57.375Z,7.56
2019-02-19T07:57:57.348Z,7.64
2019-02-19T07:58:57.362Z,7.61
2019-02-19T07:59:57.301Z,7.58
2019-02-19T08:00:57.775Z,7.58
2019-02-19T08:01:59.131Z,7.62
2019-02-19T08:02:57.305Z,7.48
2019-02-19T08:03:57.263Z,7.41
2019-02-19T08:04:57.301Z,7.46
2019-02-19T08:05:57.237Z,7.51
2019-02-19T08:06:57.409Z,7.46
2019-02-19T08:07:57.232Z,7.44
2019-02-19T08:08:57.225Z,7.59
2019-02-19T08:09:57.194Z,7.46
2019-02-19T08:10:57.237Z,7.40
2019-02-19T08:11:57.262Z,7.37
2019-02-19T08:12:57.255Z,7.43
2019-02-19T08:13:57.152Z,7.31
2019-02-19T08:14:57.164Z,7.41
2019-02-19T08:15:57.136Z,7.41
2019-02-19T08:16:57.206Z,7.41
2019-02-19T08:17:57.112Z,7.37
2019-02-19T08:18:57.217Z,7.41
2019-02-19T08:19:57.087Z,7.29
2019-02-19T08:20:59.161Z,7.44
2019-02-19T08:21:57.082Z,7.39
2019-02-19T08:22:58.150Z,7.29
2019-02-19T08:23:57.042Z,7.29
2019-02-19T08:24:58.084Z,7.25
2019-02-19T08:25:57.022Z,7.28
2019-02-19T08:26:57.080Z,7.29
2019-02-19T08:27:56.999Z,7.26
2019-02-19T08:29:06.932Z,7.29
2019-02-19T08:29:57.983Z,7.32
2019-02-19T08:30:58.078Z,7.28
2019-02-19T08:31:56.979Z,7.53
2019-02-19T08:32:56.984Z,8.09
2019-02-19T08:33:56.935Z,8.66
2019-02-19T08:34:57.002Z,9.33
2019-02-19T08:35:56.917Z,9.84
2019-02-19T08:36:56.936Z,9.66
2019-02-19T08:37:56.898Z,9.63
2019-02-19T08:38:56.923Z,9.84
2019-02-19T08:39:57.934Z,9.55
2019-02-19T08:40:56.933Z,9.64
2019-02-19T08:41:56.865Z,9.82
2019-02-19T08:42:57.002Z,10.42
2019-02-19T08:43:56.824Z,10.27
2019-02-19T08:44:56.861Z,10.02
2019-02-19T08:45:56.804Z,10.10
2019-02-19T08:46:56.909Z,9.87
2019-02-19T08:47:56.800Z,10.12
2019-02-19T08:48:56.782Z,9.91
2019-02-19T08:49:58.050Z,9.73
2019-02-19T08:50:56.804Z,9.39
2019-02-19T08:51:56.749Z,9.16
2019-02-19T08:52:56.813Z,9.02
2019-02-19T08:53:56.734Z,9.66
2019-02-19T08:54:56.729Z,10.45
2019-02-19T08:55:56.721Z,10.27
2019-02-19T08:56:56.763Z,10.39
2019-02-19T08:57:56.669Z,10.89
2019-02-19T08:58:56.753Z,10.87
2019-02-19T08:59:56.677Z,10.95
2019-02-19T09:00:56.665Z,11.27
2019-02-19T09:01:56.639Z,11.37
2019-02-19T09:02:56.680Z,11.18
2019-02-19T09:03:56.604Z,11.52
2019-02-19T09:04:56.693Z,11.45
2019-02-19T09:05:56.599Z,11.35
2019-02-19T09:06:56.631Z,11.59
2019-02-19T09:07:56.563Z,11.19
2019-02-19T09:08:56.615Z,11.08
2019-02-19T09:09:56.563Z,11.41
2019-02-19T09:10:56.627Z,11.38
2019-02-19T09:11:56.530Z,11.96
2019-02-19T09:12:56.548Z,11.23
2019-02-19T09:13:56.494Z,10.94
2019-02-19T09:14:56.556Z,10.24
2019-02-19T09:15:56.471Z,10.71
2019-02-19T09:16:56.493Z,11.01
2019-02-19T09:17:56.484Z,11.52
2019-02-19T09:18:56.475Z,11.55
2019-02-19T09:19:56.465Z,12.02
2019-02-19T09:20:56.493Z,12.35
2019-02-19T09:21:56.425Z,11.45
2019-02-19T09:22:56.535Z,11.55
2019-02-19T09:23:58.395Z,12.29
2019-02-19T09:24:56.413Z,12.73
2019-02-19T09:25:56.371Z,13.12
2019-02-19T09:26:56.469Z,13.19
2019-02-19T09:27:56.337Z,12.84
2019-02-19T09:28:56.338Z,12.86
2019-02-19T09:29:56.319Z,13.16
2019-02-19T09:30:56.355Z,13.27
2019-02-19T09:31:56.304Z,12.76
2019-02-19T09:32:56.400Z,12.58
2019-02-19T09:33:56.271Z,12.94
2019-02-19T09:34:56.279Z,13.12
2019-02-19T09:35:56.263Z,13.03
2019-02-19T09:36:56.291Z,12.73
2019-02-19T09:37:56.242Z,12.72
2019-02-19T09:38:56.304Z,12.51
2019-02-19T09:39:56.209Z,12.81
2019-02-19T09:40:56.218Z,13.52
2019-02-19T09:41:56.185Z,14.07
2019-02-19T09:42:56.257Z,14.49
2019-02-19T09:43:56.162Z,14.62
2019-02-19T09:44:56.249Z,14.56
2019-02-19T09:45:56.138Z,14.49
2019-02-19T09:46:56.154Z,14.59
2019-02-19T09:48:01.265Z,14.73
2019-02-19T09:48:57.192Z,14.37
2019-02-19T09:49:56.094Z,14.51
2019-02-19T09:50:56.193Z,15.05
2019-02-19T09:51:56.079Z,14.62
2019-02-19T09:53:06.155Z,13.91
2019-02-19T09:53:56.051Z,14.25
2019-02-19T09:54:57.131Z,14.59
2019-02-19T09:55:56.054Z,14.63
2019-02-19T09:56:56.126Z,14.33
2019-02-19T09:57:56.022Z,13.86
2019-02-19T09:58:56.033Z,13.11
2019-02-19T09:59:55.985Z,12.25
2019-02-19T10:00:56.046Z,12.75
2019-02-19T10:01:55.963Z,12.26
2019-02-19T10:02:56.000Z,12.36
2019-02-19T10:03:55.945Z,12.94
2019-02-19T10:04:55.975Z,12.91
2019-02-19T10:05:55.919Z,13.03
2019-02-19T10:06:55.986Z,13.11
2019-02-19T10:07:56.022Z,13.20
2019-02-19T10:08:55.999Z,13.16
2019-02-19T10:09:55.874Z,13.20
2019-02-19T10:10:55.911Z,12.95
2019-02-19T10:11:55.855Z,13.52
2019-02-19T10:12:55.948Z,13.67
2019-02-19T10:13:55.830Z,13.50
2019-02-19T10:14:55.835Z,12.35
2019-02-19T10:15:55.811Z,12.80
2019-02-19T10:16:55.857Z,13.39
2019-02-19T10:17:55.804Z,12.55
2019-02-19T10:18:55.863Z,12.32
2019-02-19T10:19:55.765Z,12.76
2019-02-19T10:20:55.777Z,12.21
2019-02-19T10:21:55.755Z,11.18
2019-02-19T10:22:55.814Z,11.18
2019-02-19T10:23:55.719Z,11.20
2019-02-19T10:24:55.802Z,11.37
2019-02-19T10:25:55.705Z,12.07
2019-02-19T10:26:55.712Z,12.99
2019-02-19T10:27:55.692Z,12.33
2019-02-19T10:28:55.728Z,12.63
2019-02-19T10:29:55.656Z,12.35
2019-02-19T10:30:55.740Z,12.29
2019-02-19T10:31:55.632Z,11.63
2019-02-19T10:32:55.680Z,11.67
2019-02-19T10:33:55.611Z,11.45
2019-02-19T10:34:55.703Z,11.35
2019-02-19T10:35:55.591Z,11.05
2019-02-19T10:36:57.624Z,11.13
2019-02-19T10:37:55.589Z,11.51
2019-02-19T10:38:57.643Z,11.45
2019-02-19T10:39:55.545Z,11.35
2019-02-19T10:41:03.081Z,11.27
2019-02-19T10:41:55.524Z,11.33
2019-02-19T10:42:56.564Z,11.18
2019-02-19T10:43:55.505Z,10.89
2019-02-19T10:44:55.529Z,10.98
2019-02-19T10:45:55.480Z,10.95
2019-02-19T10:46:55.544Z,11.05
2019-02-19T10:47:55.473Z,11.27
2019-02-19T10:48:55.558Z,11.43
2019-02-19T10:49:55.442Z,11.07
2019-02-19T10:50:55.469Z,10.95
2019-02-19T10:51:55.443Z,10.97
2019-02-19T10:52:55.513Z,11.07
2019-02-19T10:53:55.392Z,11.35
2019-02-19T10:54:55.496Z,11.19
2019-02-19T10:55:55.371Z,10.87
2019-02-19T10:56:55.408Z,10.80
2019-02-19T10:57:55.364Z,10.58
2019-02-19T10:58:55.421Z,10.65
2019-02-19T10:59:55.326Z,10.61
2019-02-19T11:00:55.332Z,10.80
2019-02-19T11:01:55.305Z,10.86
2019-02-19T11:02:55.373Z,10.94
2019-02-19T11:03:55.282Z,10.86
2019-02-19T11:04:55.359Z,10.75
2019-02-19T11:05:55.259Z,10.77
2019-02-19T11:06:55.269Z,10.90
2019-02-19T11:07:55.255Z,10.89
2019-02-19T11:08:55.283Z,10.89
2019-02-19T11:09:55.218Z,10.76
2019-02-19T11:10:55.297Z,10.65
2019-02-19T11:11:55.195Z,10.77
2019-02-19T11:12:55.235Z,10.72
2019-02-19T11:13:55.182Z,10.80
2019-02-19T11:14:55.222Z,10.62
2019-02-19T11:15:55.158Z,10.59
2019-02-19T11:16:55.236Z,10.46
2019-02-19T11:17:55.160Z,10.28
2019-02-19T11:18:55.147Z,10.41
2019-02-19T11:19:55.106Z,10.59
2019-02-19T11:20:55.164Z,10.49
2019-02-19T11:21:55.084Z,10.49
2019-02-19T11:22:57.161Z,10.41
2019-02-19T11:23:55.099Z,10.28
2019-02-19T11:24:55.086Z,10.68
2019-02-19T11:25:55.040Z,11.38
2019-02-19T11:26:57.045Z,11.41
2019-02-19T11:27:55.021Z,11.44
2019-02-19T11:28:55.141Z,11.53
2019-02-19T11:29:54.997Z,11.67
2019-02-19T11:30:55.025Z,11.41
2019-02-19T11:31:54.977Z,11.53
2019-02-19T11:32:55.038Z,11.62
2019-02-19T11:33:54.967Z,11.76
2019-02-19T11:34:55.052Z,11.52
2019-02-19T11:35:54.946Z,11.65
2019-02-19T11:36:54.963Z,11.76
2019-02-19T11:37:54.907Z,11.99
2019-02-19T11:38:55.003Z,11.52
2019-02-19T11:39:54.889Z,11.44
2019-02-19T11:40:55.389Z,11.25
2019-02-19T11:41:54.864Z,11.19
2019-02-19T11:42:54.901Z,11.74
2019-02-19T11:43:54.856Z,12.18
2019-02-19T11:44:54.917Z,12.90
2019-02-19T11:45:54.822Z,13.01
2019-02-19T11:46:54.814Z,12.99
2019-02-19T11:47:54.806Z,13.02
2019-02-19T11:48:56.193Z,12.57
2019-02-19T11:49:54.844Z,12.51
2019-02-19T11:50:54.773Z,12.37
2019-02-19T11:51:54.756Z,12.57
2019-02-19T11:52:54.751Z,12.40
2019-02-19T11:53:54.749Z,12.33
2019-02-19T11:54:54.752Z,12.39
2019-02-19T11:55:54.713Z,12.05
2019-02-19T11:56:54.707Z,11.58
2019-02-19T11:57:54.691Z,11.77
2019-02-19T11:58:54.723Z,11.71
2019-02-19T11:59:54.688Z,11.53
2019-02-19T12:00:54.666Z,11.60
2019-02-19T12:01:54.654Z,11.68
2019-02-19T12:02:54.642Z,11.83
2019-02-19T12:03:54.640Z,11.74
2019-02-19T12:04:54.623Z,11.86
2019-02-19T12:05:54.613Z,11.76
2019-02-19T12:06:54.597Z,11.63
2019-02-19T12:07:54.583Z,11.34
2019-02-19T12:08:54.589Z,11.35
2019-02-19T12:09:54.569Z,11.49
2019-02-19T12:10:54.560Z,11.65
2019-02-19T12:11:54.537Z,11.62
2019-02-19T12:12:54.532Z,11.77
2019-02-19T12:13:54.531Z,11.58
2019-02-19T12:14:54.512Z,11.38
2019-02-19T12:15:54.509Z,11.31
2019-02-19T12:16:54.492Z,11.41
2019-02-19T12:17:54.476Z,11.67
2019-02-19T12:18:54.481Z,13.20
2019-02-19T12:19:54.451Z,13.71
2019-02-19T12:20:54.443Z,13.49
2019-02-19T12:21:54.431Z,13.75
2019-02-19T12:22:54.422Z,13.17
2019-02-19T12:23:54.423Z,13.23
2019-02-19T12:24:54.399Z,12.94
2019-02-19T12:25:54.384Z,12.50
2019-02-19T12:26:54.377Z,12.14
2019-02-19T12:27:54.361Z,12.08
2019-02-19T12:28:54.377Z,11.93
2019-02-19T12:29:54.339Z,12.08
2019-02-19T12:30:54.332Z,12.02
2019-02-19T12:31:54.322Z,12.37
2019-02-19T12:32:54.323Z,12.90
2019-02-19T12:33:54.309Z,13.50
2019-02-19T12:34:54.292Z,14.13
2019-02-19T12:35:54.274Z,13.95
2019-02-19T12:36:54.268Z,14.77
2019-02-19T12:37:54.257Z,15.32
2019-02-19T12:38:54.264Z,16.03
2019-02-19T12:39:54.230Z,15.39
2019-02-19T12:40:54.228Z,14.90
2019-02-19T12:41:54.213Z,15.51
2019-02-19T12:42:54.203Z,14.28
2019-02-19T12:43:54.203Z,13.26
2019-02-19T12:44:54.179Z,12.57
2019-02-19T12:45:54.169Z,12.21
2019-02-19T12:46:54.158Z,11.77
2019-02-19T12:47:54.179Z,11.41
2019-02-19T12:48:54.974Z,11.25
2019-02-19T12:49:54.130Z,11.19
2019-02-19T12:50:54.114Z,11.04
2019-02-19T12:51:55.553Z,11.01
2019-02-19T12:52:54.093Z,10.84
2019-02-19T12:53:54.089Z,10.87
2019-02-19T12:54:54.070Z,10.90
2019-02-19T12:55:54.061Z,10.92
2019-02-19T12:56:54.050Z,11.00
2019-02-19T12:57:54.033Z,11.05
2019-02-19T12:58:54.040Z,11.22
2019-02-19T12:59:56.625Z,11.48
2019-02-19T13:00:54.006Z,11.35
2019-02-19T13:01:53.989Z,11.70
2019-02-19T13:02:53.986Z,12.33
2019-02-19T13:03:53.984Z,11.85
2019-02-19T13:04:53.961Z,11.95
2019-02-19T13:05:53.956Z,12.57
2019-02-19T13:06:54.254Z,12.44
2019-02-19T13:07:53.922Z,12.99
2019-02-19T13:08:53.915Z,13.73